No se requiere un especial cuidado respecto a la situación meteorológica.   -   No hay avisos

Informes METAR

 

LEZL - Sevilla, Spain
Distancia de la estación: ENE 8km
Actualización: 14/08/2018 16:00
Despejado
Despejado
 Viento de OSO
Viento: OSO 11 km/h
Temperatura: 33°C
Rocío: 13°C
Humedad: 30%
Barómetro: 1015 hPa
Resumen: Despejado
Visibilidad: mayor de 10 km
2018/08/14 14:00 LEZL 141400Z 25006KT 190V320 CAVOK 33/13 Q1015 NOSIG
LEMO - Morón, Spain
Distancia de la estación: SE 43km
Actualización: 14/08/2018 15:00
NOT Current
Despejado
Despejado
 Viento de OSO
Viento: OSO 11 km/h
Temperatura: 31°C
índice de calor: 31°C
Rocío: 16°C
Humedad: 40%
Barómetro: 1016 hPa
Resumen: Despejado
Visibilidad: mayor de 10 km
2018/08/14 13:00 LEMO 141300Z 25006KT 170V320 CAVOK 31/16 Q1016 NOSIG
LEJR - Jeréz, Spain
Distancia de la estación: S 71km
Actualización: 14/08/2018 16:00
Despejado
Despejado
 Viento de SO
Viento: SO 19 km/h
Temperatura: 31°C
índice de calor: 32°C
Rocío: 17°C
Humedad: 43%
Barómetro: 1016 hPa
Resumen: Despejado
Visibilidad: mayor de 10 km
2018/08/14 14:00 LEJR 141400Z 22010KT 170V260 CAVOK 31/17 Q1016
 
LERT - Rota, Spain
Distancia de la estación: SSO 89km
Actualización: 14/08/2018 16:00
Despejado
Despejado
 Viento de SO
Viento: SO 15 km/h
Temperatura: 25°C
Rocío: 18°C
Humedad: 65%
Barómetro: 1017 hPa
Resumen: Despejado
Visibilidad: mayor de 10 km
2018/08/14 14:00 LERT 141400Z 23008KT 200V270 CAVOK 25/18 Q1017 NOSIG
LEMG - Málaga, Spain
Distancia de la estación: ESE 157km
Actualización: 14/08/2018 16:00
Poco nuboso
Poco nuboso
 Viento de E
Viento: E 24 km/h
Temperatura: 30°C
índice de calor: 31°C
Rocío: 18°C
Humedad: 49%
Barómetro: 1014 hPa
Nubes: Poco nuboso
Visibilidad: 10 km
Detalles de las nubes: Poco nuboso 1219 m
2018/08/14 14:00 LEMG 141400Z 09013KT 9999 FEW040 30/18 Q1014 NOSIG
LEBA - Córdoba, Spain
Distancia de la estación: ENE 115km
Actualización: 14/08/2018 16:00
Despejado
Despejado
 Viento de O
Viento: O 13 km/h
Temperatura: 35°C
Rocío: 11°C
Humedad: 23%
Barómetro: 1015 hPa
Resumen: Despejado
Visibilidad: mayor de 10 km
2018/08/14 14:00 LEBA 141400Z 27007KT 230V320 CAVOK 35/11 Q1015
 
LEGR - Granada, Spain
Distancia de la estación: E 198km
Actualización: 14/08/2018 16:00
Poco nuboso
Poco nuboso
 Viento de variable
Viento: variable 11 km/h
Temperatura: 36°C
Rocío: 7°C
Humedad: 17%
Barómetro: 1016 hPa
Nubes: Poco nuboso
Visibilidad: 10 km
Detalles de las nubes: Poco nuboso 1829 m
2018/08/14 14:00 LEGR 141400Z VRB06KT 9999 FEW060 36/07 Q1016
LEAM - Almería, Spain
Distancia de la estación: E 326km
Actualización: 14/08/2018 16:00
Despejado
Despejado
 Viento de SO
Viento: SO 15 km/h
Temperatura: 28°C
índice de calor: 32°C
Rocío: 24°C
Humedad: 79%
Barómetro: 1015 hPa
Resumen: Despejado
Visibilidad: mayor de 10 km
2018/08/14 14:00 LEAM 141400Z 22008KT 190V260 CAVOK 28/24 Q1015
LEMD - Madrid/Barajas, Spain
Distancia de la estación: NNE 402km
Actualización: 14/08/2018 16:00
Despejado
Despejado
 Viento de N
Viento: N 4 km/h
Temperatura: 32°C
Rocío: 10°C
Humedad: 26%
Barómetro: 1018 hPa
Resumen: Despejado
Visibilidad: mayor de 10 km
2018/08/14 14:00 LEMD 141400Z 01002KT CAVOK 32/10 Q1018 NOSIG
 
LEVD - Valladolid, Spain
Distancia de la estación: N 492km
Actualización: 14/08/2018 16:00
Despejado
Despejado
 Viento de E
Viento: E 22 km/h
Temperatura: 26°C
Rocío: 9°C
Humedad: 34%
Barómetro: 1022 hPa
Resumen: Despejado
Visibilidad: mayor de 10 km
2018/08/14 14:00 LEVD 141400Z 08012KT 030V110 CAVOK 26/09 Q1022
LEBL - Barcelona, Spain
Distancia de la estación: NE 816km
Actualización: 14/08/2018 16:00
Poco nuboso
Poco nuboso
 Viento de SSO
Viento: SSO 26 km/h
Temperatura: 27°C
índice de calor: 29°C
Rocío: 21°C
Humedad: 70%
Barómetro: 1016 hPa
Nubes: Poco nuboso
Visibilidad: 10 km
Detalles de las nubes: Poco nuboso 610 m
2018/08/14 14:00 LEBL 141400Z 20014KT 160V220 9999 FEW020 27/21 Q1016 NOSIG
LEVC - Valencia, Spain
Distancia de la estación: ENE 535km
Actualización: 14/08/2018 16:00
Poco nuboso
Poco nuboso
 Viento de ESE
Viento: ESE 19 km/h
Temperatura: 30°C
índice de calor: 30°C
Rocío: 16°C
Humedad: 43%
Barómetro: 1016 hPa
Nubes: Poco nuboso
Visibilidad: 10 km
Detalles de las nubes: Poco nuboso 914 m
2018/08/14 14:00 LEVC 141400Z 12010KT 080V160 9999 FEW030 30/16 Q1016 NOSIG